Time,TemperatureF,DewpointF,PressureIn,WindDirection,WindDirectionDegrees,WindSpeedMPH,WindSpeedGustMPH,Humidity,HourlyPrecipIn,Conditions,Clouds,dailyrainin,SoftwareType,DateUTC
2013-03-26 00:03:00,34.0,23.0,30.10,West,262,5.0,13.0,63,0.00,,,0.00,,2013-03-26 04:03:00,
2013-03-26 00:13:00,34.0,23.0,30.10,West,262,5.0,13.0,63,0.00,,,0.00,,2013-03-26 04:13:00,
2013-03-26 00:23:00,33.0,22.0,30.11,WNW,294,5.0,12.0,64,0.00,,,0.00,,2013-03-26 04:23:00,
2013-03-26 00:33:00,33.0,22.0,30.11,WNW,294,5.0,12.0,64,0.00,,,0.00,,2013-03-26 04:33:00,
2013-03-26 00:43:00,33.0,22.0,30.11,WNW,294,5.0,12.0,64,0.00,,,0.00,,2013-03-26 04:43:00,
2013-03-26 00:53:00,33.0,23.0,30.11,WNW,292,1.0,7.0,66,0.00,,,0.00,,2013-03-26 04:53:00,
2013-03-26 01:02:00,33.0,23.0,30.11,WNW,292,1.0,7.0,66,0.00,,,0.00,,2013-03-26 05:02:00,
2013-03-26 01:12:00,33.0,23.0,30.11,WNW,292,1.0,7.0,66,0.00,,,0.00,,2013-03-26 05:12:00,
2013-03-26 01:22:00,32.0,23.0,30.10,WNW,300,2.0,6.0,69,0.00,,,0.00,,2013-03-26 05:22:00,
2013-03-26 01:32:00,32.0,23.0,30.10,WNW,300,2.0,6.0,69,0.00,,,0.00,,2013-03-26 05:32:00,
2013-03-26 01:42:00,32.0,23.0,30.10,WNW,300,2.0,6.0,69,0.00,,,0.00,,2013-03-26 05:42:00,
2013-03-26 01:52:00,32.0,24.0,30.11,WNW,303,1.0,8.0,72,0.00,,,0.00,,2013-03-26 05:52:00,
2013-03-26 02:02:00,32.0,24.0,30.11,WNW,303,1.0,8.0,72,0.00,,,0.00,,2013-03-26 06:02:00,
2013-03-26 02:12:00,32.0,24.0,30.11,WNW,303,1.0,8.0,72,0.00,,,0.00,,2013-03-26 06:12:00,
2013-03-26 02:22:00,32.0,24.0,30.11,WNW,300,1.0,6.0,72,0.00,,,0.00,,2013-03-26 06:22:00,
2013-03-26 02:32:00,32.0,24.0,30.11,WNW,300,1.0,6.0,72,0.00,,,0.00,,2013-03-26 06:32:00,
2013-03-26 02:43:00,32.0,24.0,30.11,WNW,300,1.0,6.0,72,0.00,,,0.00,,2013-03-26 06:43:00,
2013-03-26 02:52:00,32.0,24.0,30.11,NW,315,4.0,9.0,72,0.00,,,0.00,,2013-03-26 06:52:00,
2013-03-26 03:02:00,32.0,24.0,30.11,NW,315,4.0,9.0,72,0.00,,,0.00,,2013-03-26 07:02:00,
2013-03-26 03:12:00,32.0,24.0,30.11,NW,315,4.0,9.0,72,0.00,,,0.00,,2013-03-26 07:12:00,
2013-03-26 03:22:00,32.0,24.0,30.10,West,271,1.0,4.0,73,0.00,,,0.00,,2013-03-26 07:22:00,
2013-03-26 03:33:00,32.0,24.0,30.10,West,271,1.0,4.0,73,0.00,,,0.00,,2013-03-26 07:33:00,
2013-03-26 03:43:00,32.0,24.0,30.10,West,271,1.0,4.0,73,0.00,,,0.00,,2013-03-26 07:43:00,
2013-03-26 03:53:00,31.0,24.0,30.09,WNW,301,1.0,9.0,74,0.00,,,0.00,,2013-03-26 07:53:00,
2013-03-26 04:02:00,31.0,24.0,30.09,WNW,301,1.0,9.0,74,0.00,,,0.00,,2013-03-26 08:02:00,
2013-03-26 04:12:00,31.0,24.0,30.09,WNW,301,1.0,9.0,74,0.00,,,0.00,,2013-03-26 08:12:00,
2013-03-26 04:22:00,31.0,24.0,30.08,NW,306,2.0,7.0,75,0.00,,,0.00,,2013-03-26 08:22:00,
2013-03-26 04:32:00,31.0,24.0,30.08,NW,306,2.0,7.0,75,0.00,,,0.00,,2013-03-26 08:32:00,
2013-03-26 04:42:00,31.0,24.0,30.08,NW,306,2.0,7.0,75,0.00,,,0.00,,2013-03-26 08:42:00,
2013-03-26 04:52:00,32.0,25.0,30.08,West,273,1.0,6.0,76,0.00,,,0.00,,2013-03-26 08:52:00,
2013-03-26 05:02:00,32.0,25.0,30.08,West,273,1.0,6.0,76,0.00,,,0.00,,2013-03-26 09:02:00,
2013-03-26 05:12:00,32.0,25.0,30.08,West,273,1.0,6.0,76,0.00,,,0.00,,2013-03-26 09:12:00,
2013-03-26 05:22:00,32.0,25.0,30.08,West,273,1.0,6.0,76,0.00,,,0.00,,2013-03-26 09:22:00,
2013-03-26 05:33:00,32.0,25.0,30.08,West,273,1.0,6.0,76,0.00,,,0.00,,2013-03-26 09:33:00,
2013-03-26 05:52:00,32.0,26.0,30.08,WNW,289,3.0,8.0,77,0.00,,,0.00,,2013-03-26 09:52:00,
2013-03-26 06:03:00,32.0,26.0,30.08,WNW,289,3.0,8.0,77,0.00,,,0.00,,2013-03-26 10:03:00,
2013-03-26 06:12:00,32.0,26.0,30.08,WNW,289,3.0,8.0,77,0.00,,,0.00,,2013-03-26 10:12:00,
2013-03-26 06:22:00,32.0,26.0,30.09,WNW,285,1.0,6.0,79,0.00,,,0.00,,2013-03-26 10:22:00,
2013-03-26 06:32:00,32.0,26.0,30.09,WNW,285,1.0,6.0,79,0.00,,,0.00,,2013-03-26 10:32:00,
2013-03-26 06:43:00,32.0,26.0,30.09,WNW,285,1.0,6.0,79,0.00,,,0.00,,2013-03-26 10:43:00,
2013-03-26 06:53:00,32.0,26.0,30.09,WNW,303,1.0,10.0,78,0.00,,,0.00,,2013-03-26 10:53:00,
2013-03-26 07:03:00,32.0,26.0,30.09,WNW,303,1.0,10.0,78,0.00,,,0.00,,2013-03-26 11:03:00,
2013-03-26 07:12:00,32.0,26.0,30.09,WNW,303,1.0,10.0,78,0.00,,,0.00,,2013-03-26 11:12:00,
2013-03-26 07:22:00,32.0,26.0,30.10,WNW,285,2.0,8.0,78,0.00,,,0.00,,2013-03-26 11:22:00,
2013-03-26 07:32:00,32.0,26.0,30.10,WNW,285,2.0,8.0,78,0.00,,,0.00,,2013-03-26 11:32:00,
2013-03-26 07:43:00,32.0,26.0,30.10,WNW,285,2.0,8.0,78,0.00,,,0.00,,2013-03-26 11:43:00,
2013-03-26 07:52:00,31.0,25.0,30.11,WNW,294,1.0,5.0,79,0.00,,,0.00,,2013-03-26 11:52:00,
2013-03-26 08:03:00,31.0,25.0,30.11,WNW,294,1.0,5.0,79,0.00,,,0.00,,2013-03-26 12:03:00,
2013-03-26 08:12:00,31.0,25.0,30.11,WNW,294,1.0,5.0,79,0.00,,,0.00,,2013-03-26 12:12:00,
2013-03-26 08:22:00,32.0,27.0,30.12,WNW,296,4.0,9.0,81,0.00,,,0.00,,2013-03-26 12:22:00,
2013-03-26 08:32:00,32.0,27.0,30.12,WNW,296,4.0,9.0,81,0.00,,,0.00,,2013-03-26 12:32:00,
2013-03-26 08:43:00,32.0,27.0,30.12,WNW,296,4.0,9.0,81,0.00,,,0.00,,2013-03-26 12:43:00,
2013-03-26 08:52:00,32.0,27.0,30.13,WNW,289,4.0,11.0,80,0.00,,,0.00,,2013-03-26 12:52:00,
2013-03-26 09:03:00,32.0,27.0,30.13,WNW,289,4.0,11.0,80,0.00,,,0.00,,2013-03-26 13:03:00,
2013-03-26 09:12:00,32.0,27.0,30.13,WNW,289,4.0,11.0,80,0.00,,,0.00,,2013-03-26 13:12:00,
2013-03-26 09:22:00,33.0,27.0,30.15,WNW,303,2.0,13.0,79,0.00,,,0.00,,2013-03-26 13:22:00,
2013-03-26 09:32:00,33.0,27.0,30.15,WNW,303,2.0,13.0,79,0.00,,,0.00,,2013-03-26 13:32:00,
2013-03-26 09:42:00,33.0,27.0,30.15,WNW,303,2.0,13.0,79,0.00,,,0.00,,2013-03-26 13:42:00,
2013-03-26 09:52:00,33.0,27.0,30.16,WNW,294,1.0,6.0,78,0.00,,,0.00,,2013-03-26 13:52:00,
2013-03-26 10:02:00,33.0,27.0,30.16,WNW,294,1.0,6.0,78,0.00,,,0.00,,2013-03-26 14:02:00,
2013-03-26 10:12:00,33.0,27.0,30.16,WNW,294,1.0,6.0,78,0.00,,,0.00,,2013-03-26 14:12:00,
2013-03-26 10:22:00,35.0,27.0,30.17,NNW,332,4.0,11.0,73,0.00,,,0.00,,2013-03-26 14:22:00,
2013-03-26 10:32:00,35.0,27.0,30.17,NNW,332,4.0,11.0,73,0.00,,,0.00,,2013-03-26 14:32:00,
2013-03-26 10:42:00,35.0,27.0,30.17,NNW,332,4.0,11.0,73,0.00,,,0.00,,2013-03-26 14:42:00,
2013-03-26 10:53:00,35.0,27.0,30.18,WNW,294,5.0,11.0,73,0.00,,,0.00,,2013-03-26 14:53:00,
2013-03-26 11:02:00,35.0,27.0,30.18,WNW,294,5.0,11.0,73,0.00,,,0.00,,2013-03-26 15:02:00,
2013-03-26 11:12:00,35.0,27.0,30.18,WNW,294,5.0,11.0,73,0.00,,,0.00,,2013-03-26 15:12:00,
2013-03-26 11:22:00,35.0,26.0,30.19,NNW,328,2.0,17.0,69,0.00,,,0.00,,2013-03-26 15:22:00,
2013-03-26 11:33:00,35.0,26.0,30.19,NNW,328,2.0,17.0,69,0.00,,,0.00,,2013-03-26 15:33:00,
2013-03-26 11:43:00,35.0,26.0,30.19,NNW,328,2.0,17.0,69,0.00,,,0.00,,2013-03-26 15:43:00,
2013-03-26 11:53:00,36.0,25.0,30.20,NNW,328,5.0,15.0,65,0.00,,,0.00,,2013-03-26 15:53:00,
2013-03-26 12:03:00,36.0,25.0,30.20,NNW,328,5.0,15.0,65,0.00,,,0.00,,2013-03-26 16:03:00,
2013-03-26 12:13:00,36.0,25.0,30.20,NNW,328,5.0,15.0,65,0.00,,,0.00,,2013-03-26 16:13:00,
2013-03-26 12:22:00,36.0,25.0,30.21,NW,322,3.0,12.0,65,0.00,,,0.00,,2013-03-26 16:22:00,
2013-03-26 12:32:00,36.0,25.0,30.21,NW,322,3.0,12.0,65,0.00,,,0.00,,2013-03-26 16:32:00,
2013-03-26 12:42:00,36.0,25.0,30.21,NW,322,3.0,12.0,65,0.00,,,0.00,,2013-03-26 16:42:00,
2013-03-26 12:54:00,38.0,27.0,30.21,NNW,331,4.0,8.0,64,0.00,,,0.00,,2013-03-26 16:54:00,
2013-03-26 13:02:00,38.0,27.0,30.21,NNW,331,4.0,8.0,64,0.00,,,0.00,,2013-03-26 17:02:00,
2013-03-26 13:12:00,38.0,27.0,30.21,NNW,331,4.0,8.0,64,0.00,,,0.00,,2013-03-26 17:12:00,
2013-03-26 13:23:00,39.0,25.0,30.22,NW,322,3.0,11.0,57,0.00,,,0.00,,2013-03-26 17:23:00,
2013-03-26 13:32:00,39.0,25.0,30.22,NW,322,3.0,11.0,57,0.00,,,0.00,,2013-03-26 17:32:00,
2013-03-26 13:42:00,39.0,25.0,30.22,NW,322,3.0,11.0,57,0.00,,,0.00,,2013-03-26 17:42:00,
2013-03-26 13:53:00,39.0,25.0,30.21,West,275,1.0,5.0,57,0.00,,,0.00,,2013-03-26 17:53:00,
2013-03-26 14:02:00,39.0,25.0,30.21,West,275,1.0,5.0,57,0.00,,,0.00,,2013-03-26 18:02:00,
2013-03-26 14:12:00,39.0,25.0,30.21,West,275,1.0,5.0,57,0.00,,,0.00,,2013-03-26 18:12:00,
2013-03-26 14:23:00,41.0,27.0,30.20,NW,305,0.0,10.0,56,0.00,,,0.00,,2013-03-26 18:23:00,
2013-03-26 14:34:00,41.0,27.0,30.20,NW,305,0.0,10.0,56,0.00,,,0.00,,2013-03-26 18:34:00,
2013-03-26 14:42:00,41.0,27.0,30.20,NW,305,0.0,10.0,56,0.00,,,0.00,,2013-03-26 18:42:00,
2013-03-26 14:53:00,39.0,24.0,30.21,NNW,330,6.0,15.0,55,0.00,,,0.00,,2013-03-26 18:53:00,
2013-03-26 15:03:00,39.0,24.0,30.21,NNW,330,6.0,15.0,55,0.00,,,0.00,,2013-03-26 19:03:00,
2013-03-26 15:12:00,39.0,24.0,30.21,NNW,330,6.0,15.0,55,0.00,,,0.00,,2013-03-26 19:12:00,
2013-03-26 15:22:00,40.0,26.0,30.21,WNW,285,3.0,8.0,56,0.00,,,0.00,,2013-03-26 19:22:00,
2013-03-26 15:32:00,40.0,26.0,30.21,WNW,285,3.0,8.0,56,0.00,,,0.00,,2013-03-26 19:32:00,
2013-03-26 15:42:00,40.0,26.0,30.21,WNW,285,3.0,8.0,56,0.00,,,0.00,,2013-03-26 19:42:00,
2013-03-26 15:53:00,40.0,25.0,30.21,NNW,327,3.0,6.0,55,0.00,,,0.00,,2013-03-26 19:53:00,
2013-03-26 16:02:00,40.0,25.0,30.21,NNW,327,3.0,6.0,55,0.00,,,0.00,,2013-03-26 20:02:00,
2013-03-26 16:13:00,40.0,25.0,30.21,NNW,327,3.0,6.0,55,0.00,,,0.00,,2013-03-26 20:13:00,
2013-03-26 16:22:00,39.0,25.0,30.21,NNW,339,3.0,14.0,56,0.00,,,0.00,,2013-03-26 20:22:00,
2013-03-26 16:32:00,39.0,25.0,30.21,NNW,339,3.0,14.0,56,0.00,,,0.00,,2013-03-26 20:32:00,
2013-03-26 16:33:00,39.0,26.0,30.22,West,277,2.0,9.0,60,0.00,,,0.00,,2013-03-26 20:33:00,
2013-03-26 16:43:00,39.0,25.0,30.21,NNW,339,3.0,14.0,56,0.00,,,0.00,,2013-03-26 20:43:00,
2013-03-26 16:52:00,39.0,26.0,30.22,West,277,2.0,9.0,60,0.00,,,0.00,,2013-03-26 20:52:00,
2013-03-26 17:02:00,39.0,26.0,30.22,West,277,2.0,9.0,60,0.00,,,0.00,,2013-03-26 21:02:00,
2013-03-26 17:13:00,39.0,26.0,30.22,West,277,2.0,9.0,60,0.00,,,0.00,,2013-03-26 21:13:00,
2013-03-26 17:22:00,39.0,26.0,30.22,West,277,2.0,9.0,60,0.00,,,0.00,,2013-03-26 21:22:00,
2013-03-26 17:33:00,38.0,25.0,30.23,WNW,288,2.0,7.0,59,0.00,,,0.00,,2013-03-26 21:33:00,
2013-03-26 18:22:00,38.0,25.0,30.23,WNW,288,2.0,7.0,59,0.00,,,0.00,,2013-03-26 22:22:00,
2013-03-26 19:23:00,38.0,25.0,30.25,NW,304,4.0,9.0,58,0.00,,,0.00,,2013-03-26 23:23:00,
2013-03-26 19:32:00,38.0,25.0,30.25,NW,304,4.0,9.0,58,0.00,,,0.00,,2013-03-26 23:32:00,
2013-03-26 19:43:00,38.0,25.0,30.25,NW,304,4.0,9.0,58,0.00,,,0.00,,2013-03-26 23:43:00,
2013-03-26 19:53:00,37.0,25.0,30.26,NW,307,2.0,9.0,62,0.00,,,0.00,,2013-03-26 23:53:00,
2013-03-26 20:02:00,37.0,25.0,30.26,NW,307,2.0,9.0,62,0.00,,,0.00,,2013-03-27 00:02:00,
2013-03-26 20:12:00,37.0,25.0,30.26,NW,307,2.0,9.0,62,0.00,,,0.00,,2013-03-27 00:12:00,
2013-03-26 20:22:00,36.0,25.0,30.27,WNW,302,1.0,6.0,65,0.00,,,0.00,,2013-03-27 00:22:00,
2013-03-26 20:32:00,36.0,25.0,30.27,WNW,302,1.0,6.0,65,0.00,,,0.00,,2013-03-27 00:32:00,
2013-03-26 20:42:00,36.0,25.0,30.27,WNW,302,1.0,6.0,65,0.00,,,0.00,,2013-03-27 00:42:00,
2013-03-26 20:52:00,36.0,25.0,30.28,WSW,250,1.0,9.0,64,0.00,,,0.00,,2013-03-27 00:52:00,
2013-03-26 21:02:00,36.0,25.0,30.28,WSW,250,1.0,9.0,64,0.00,,,0.00,,2013-03-27 01:02:00,
2013-03-26 21:12:00,36.0,25.0,30.28,WSW,250,1.0,9.0,64,0.00,,,0.00,,2013-03-27 01:12:00,
2013-03-26 21:23:00,36.0,25.0,30.29,WNW,301,2.0,7.0,65,0.00,,,0.00,,2013-03-27 01:23:00,
2013-03-26 21:33:00,36.0,25.0,30.29,WNW,301,2.0,7.0,65,0.00,,,0.00,,2013-03-27 01:33:00,
2013-03-26 21:43:00,36.0,25.0,30.29,WNW,301,2.0,7.0,65,0.00,,,0.00,,2013-03-27 01:43:00,
2013-03-26 21:53:00,36.0,25.0,30.30,WNW,301,2.0,9.0,64,0.00,,,0.00,,2013-03-27 01:53:00,
2013-03-26 22:03:00,36.0,25.0,30.30,WNW,301,2.0,9.0,64,0.00,,,0.00,,2013-03-27 02:03:00,
2013-03-26 22:12:00,36.0,25.0,30.30,WNW,301,2.0,9.0,64,0.00,,,0.00,,2013-03-27 02:12:00,
2013-03-26 22:22:00,36.0,25.0,30.30,NW,321,2.0,6.0,64,0.00,,,0.00,,2013-03-27 02:22:00,
2013-03-26 22:32:00,36.0,25.0,30.30,NW,321,2.0,6.0,64,0.00,,,0.00,,2013-03-27 02:32:00,
2013-03-26 22:43:00,36.0,25.0,30.30,NW,321,2.0,6.0,64,0.00,,,0.00,,2013-03-27 02:43:00,
2013-03-26 22:53:00,35.0,24.0,30.31,WNW,302,1.0,5.0,65,0.00,,,0.00,,2013-03-27 02:53:00,
2013-03-26 23:02:00,35.0,24.0,30.31,WNW,302,1.0,5.0,65,0.00,,,0.00,,2013-03-27 03:02:00,
2013-03-26 23:12:00,35.0,24.0,30.31,WNW,302,1.0,5.0,65,0.00,,,0.00,,2013-03-27 03:12:00,
2013-03-26 23:22:00,34.0,24.0,30.32,West,281,2.0,6.0,67,0.00,,,0.00,,2013-03-27 03:22:00,
2013-03-26 23:33:00,34.0,24.0,30.32,West,281,2.0,6.0,67,0.00,,,0.00,,2013-03-27 03:33:00,
2013-03-26 23:43:00,34.0,24.0,30.32,West,281,2.0,6.0,67,0.00,,,0.00,,2013-03-27 03:43:00,
2013-03-26 23:53:00,33.0,24.0,30.32,NW,321,0.0,3.0,68,0.00,,,0.00,,2013-03-27 03:53:00,